< < Back
Terminal Aerodrome Forecast


Current Version              Previous Versions:   1  2  3  4  5  6  7  8  9  

Terminal Aerodrome Forecast

383
FTUS42 KCHS 142200 AAD
TAFCHS
TAF AMD
KCHS 142201Z 1422/1518 07006KT P6SM VCTS SCT015CB BKN020
     FM150000 04004KT P6SM SCT025 BKN050
     FM150300 03005KT P6SM SCT015 BKN028
      TEMPO 1509/1513 SCT007 BKN010
     FM151600 VRB03KT P6SM SCT010 BKN040=

Latest METAR

920
SAUS80 KWBC 150400
MTRCHS
METAR KCHS 150356Z 03006KT 8SM BKN008 23/21 A3019 RMK AO2 SLP222
T02280211


USA.gov is the U.S. government's official web portal to all federal, state and local government web resources and services.